createdAt,value
2024-01-29T00:00:59.078Z,7.76
2024-01-29T00:01:59.401Z,7.67
2024-01-29T00:02:59.739Z,7.83
2024-01-29T00:04:00.118Z,7.82
2024-01-29T00:05:00.423Z,7.82
2024-01-29T00:06:00.812Z,7.79
2024-01-29T00:07:01.195Z,7.83
2024-01-29T00:08:01.495Z,7.97
2024-01-29T00:09:01.836Z,7.97
2024-01-29T00:10:02.287Z,7.82
2024-01-29T00:11:02.613Z,7.83
2024-01-29T00:12:03.093Z,7.82
2024-01-29T00:13:03.337Z,7.91
2024-01-29T00:14:03.595Z,7.91
2024-01-29T00:15:03.961Z,7.90
2024-01-29T00:16:04.357Z,7.95
2024-01-29T00:17:04.653Z,7.87
2024-01-29T00:18:05.114Z,7.97
2024-01-29T00:19:05.474Z,7.95
2024-01-29T00:20:05.829Z,7.98
2024-01-29T00:21:06.122Z,7.91
2024-01-29T00:22:06.523Z,7.79
2024-01-29T00:23:06.859Z,7.90
2024-01-29T00:24:07.176Z,7.93
2024-01-29T00:25:07.591Z,7.88
2024-01-29T00:26:07.898Z,7.91
2024-01-29T00:27:08.227Z,7.90
2024-01-29T00:28:08.651Z,7.90
2024-01-29T00:29:08.904Z,7.97
2024-01-29T00:30:09.316Z,8.03
2024-01-29T00:31:09.618Z,7.95
2024-01-29T00:32:09.931Z,7.90
2024-01-29T00:33:10.392Z,7.94
2024-01-29T00:34:10.708Z,7.93
2024-01-29T00:35:10.991Z,7.88
2024-01-29T00:36:11.353Z,7.91
2024-01-29T00:37:11.747Z,8.00
2024-01-29T00:38:12.060Z,7.94
2024-01-29T00:39:12.421Z,7.80
2024-01-29T00:40:12.832Z,7.91
2024-01-29T00:41:13.069Z,7.95
2024-01-29T00:42:13.434Z,8.05
2024-01-29T00:43:13.855Z,7.98
2024-01-29T00:44:14.173Z,8.00
2024-01-29T00:45:14.534Z,7.97
2024-01-29T00:46:14.905Z,7.93
2024-01-29T00:47:15.265Z,7.90
2024-01-29T00:48:15.677Z,7.95
2024-01-29T00:49:16.144Z,7.93
2024-01-29T00:50:16.328Z,7.91
2024-01-29T00:51:16.680Z,7.95
2024-01-29T00:52:17.049Z,7.98
2024-01-29T00:53:17.445Z,7.97
2024-01-29T00:54:17.779Z,7.90
2024-01-29T00:55:18.139Z,7.82
2024-01-29T00:56:18.514Z,7.91
2024-01-29T00:57:18.886Z,7.88
2024-01-29T00:58:19.245Z,7.85
2024-01-29T00:59:19.553Z,7.82
2024-01-29T01:00:19.981Z,7.82
2024-01-29T01:01:20.347Z,7.79
2024-01-29T01:02:20.644Z,7.76
2024-01-29T01:03:21.102Z,7.88
2024-01-29T01:04:21.391Z,7.82
2024-01-29T01:05:21.915Z,7.82
2024-01-29T01:06:22.092Z,7.82
2024-01-29T01:07:22.361Z,7.83
2024-01-29T01:08:22.744Z,7.83
2024-01-29T01:09:23.066Z,7.90
2024-01-29T01:10:23.423Z,7.80
2024-01-29T01:11:23.780Z,7.82
2024-01-29T01:12:24.157Z,7.83
2024-01-29T01:13:24.555Z,7.85
2024-01-29T01:14:24.863Z,7.80
2024-01-29T01:15:25.366Z,7.87
2024-01-29T01:16:25.572Z,7.79
2024-01-29T01:17:26.065Z,7.83
2024-01-29T01:18:26.388Z,7.85
2024-01-29T01:19:26.762Z,7.90
2024-01-29T01:20:27.077Z,7.82
2024-01-29T01:21:27.388Z,7.76
2024-01-29T01:22:27.726Z,7.95
2024-01-29T01:23:28.117Z,7.97
2024-01-29T01:24:28.480Z,7.98
2024-01-29T01:25:28.802Z,7.91
2024-01-29T01:26:29.175Z,7.97
2024-01-29T01:27:29.557Z,7.88
2024-01-29T01:28:29.882Z,7.79
2024-01-29T01:29:30.218Z,7.73
2024-01-29T01:30:30.581Z,7.70
2024-01-29T01:31:30.994Z,7.72
2024-01-29T01:32:31.338Z,7.73
2024-01-29T01:33:31.666Z,7.76
2024-01-29T01:34:32.080Z,7.70
2024-01-29T01:35:32.352Z,7.72
2024-01-29T01:36:32.749Z,7.73
2024-01-29T01:37:33.104Z,7.70
2024-01-29T01:38:33.393Z,7.80
2024-01-29T01:39:33.770Z,7.76
2024-01-29T01:40:34.129Z,7.76
2024-01-29T01:41:34.453Z,7.60
2024-01-29T01:42:34.875Z,7.58
2024-01-29T01:43:35.168Z,7.66
2024-01-29T01:44:35.535Z,7.67
2024-01-29T01:45:35.948Z,7.77
2024-01-29T01:46:36.409Z,7.72
2024-01-29T01:47:36.679Z,7.83
2024-01-29T01:48:37.127Z,7.77
2024-01-29T01:49:37.410Z,7.88
2024-01-29T01:50:37.630Z,7.90
2024-01-29T01:51:38.012Z,7.83
2024-01-29T01:52:38.380Z,7.69
2024-01-29T01:53:38.662Z,7.75
2024-01-29T01:54:38.994Z,7.75
2024-01-29T01:55:39.346Z,7.77
2024-01-29T01:56:39.731Z,7.80
2024-01-29T01:57:40.069Z,7.80
2024-01-29T01:58:40.379Z,7.83
2024-01-29T01:59:40.762Z,7.79
2024-01-29T02:00:41.202Z,7.70
2024-01-29T02:01:41.549Z,7.76
2024-01-29T02:02:41.874Z,7.72
2024-01-29T02:03:42.304Z,7.67
2024-01-29T02:04:42.653Z,7.70
2024-01-29T02:05:42.979Z,7.77
2024-01-29T02:06:43.352Z,7.73
2024-01-29T02:07:43.652Z,7.73
2024-01-29T02:08:43.984Z,7.76
2024-01-29T02:09:44.369Z,7.75
2024-01-29T02:10:44.719Z,7.72
2024-01-29T02:11:45.105Z,7.72
2024-01-29T02:12:45.483Z,7.56
2024-01-29T02:13:45.812Z,7.70
2024-01-29T02:14:46.144Z,7.67
2024-01-29T02:15:46.529Z,7.66
2024-01-29T02:16:46.882Z,7.57
2024-01-29T02:17:47.287Z,7.53
2024-01-29T02:18:47.663Z,7.57
2024-01-29T02:19:48.096Z,7.47
2024-01-29T02:20:48.294Z,7.56
2024-01-29T02:21:48.703Z,7.53
2024-01-29T02:22:49.012Z,7.50
2024-01-29T02:23:49.326Z,7.51
2024-01-29T02:24:49.721Z,7.50
2024-01-29T02:25:50.078Z,7.47
2024-01-29T02:26:50.425Z,7.36
2024-01-29T02:27:50.838Z,7.40
2024-01-29T02:28:51.147Z,7.39
2024-01-29T02:29:51.524Z,7.35
2024-01-29T02:30:52.018Z,7.40
2024-01-29T02:31:52.227Z,7.38
2024-01-29T02:32:52.713Z,7.33
2024-01-29T02:33:53.103Z,7.18
2024-01-29T02:34:53.346Z,7.24
2024-01-29T02:35:53.647Z,7.32
2024-01-29T02:36:54.046Z,7.32
2024-01-29T02:37:54.431Z,7.38
2024-01-29T02:38:54.793Z,7.39
2024-01-29T02:39:55.198Z,7.25
2024-01-29T02:40:55.488Z,7.29
2024-01-29T02:41:55.835Z,7.31
2024-01-29T02:42:56.274Z,7.42
2024-01-29T02:43:56.585Z,7.38
2024-01-29T02:44:56.938Z,7.39
2024-01-29T02:45:57.333Z,7.36
2024-01-29T02:46:57.668Z,7.32
2024-01-29T02:47:58.085Z,7.28
2024-01-29T02:48:58.507Z,7.24
2024-01-29T02:49:58.794Z,7.18
2024-01-29T02:50:59.089Z,7.07
2024-01-29T02:51:59.520Z,7.05
2024-01-29T02:52:59.800Z,6.97
2024-01-29T02:54:00.149Z,7.02
2024-01-29T02:55:00.708Z,7.00
2024-01-29T02:56:00.866Z,6.81
2024-01-29T02:57:01.232Z,6.75
2024-01-29T02:58:01.677Z,6.81
2024-01-29T02:59:01.899Z,6.75
2024-01-29T03:00:02.325Z,6.74
2024-01-29T03:01:02.696Z,6.66
2024-01-29T03:02:02.968Z,6.74
2024-01-29T03:03:03.360Z,6.62
2024-01-29T03:04:03.775Z,6.60
2024-01-29T03:05:04.134Z,6.67
2024-01-29T03:06:04.602Z,6.75
2024-01-29T03:07:04.796Z,6.64
2024-01-29T03:08:05.148Z,6.64
2024-01-29T03:09:05.449Z,6.63
2024-01-29T03:10:06.003Z,6.63
2024-01-29T03:11:06.156Z,6.67
2024-01-29T03:12:06.526Z,6.60
2024-01-29T03:13:07.020Z,6.60
2024-01-29T03:14:07.271Z,6.60
2024-01-29T03:15:07.608Z,6.57
2024-01-29T03:16:08.013Z,6.54
2024-01-29T03:17:08.336Z,6.56
2024-01-29T03:18:08.888Z,6.57
2024-01-29T03:19:09.182Z,6.52
2024-01-29T03:20:09.421Z,6.41
2024-01-29T03:21:09.766Z,6.44
2024-01-29T03:22:10.154Z,6.42
2024-01-29T03:23:10.464Z,6.45
2024-01-29T03:24:10.789Z,6.52
2024-01-29T03:25:11.233Z,6.48
2024-01-29T03:26:11.486Z,6.44
2024-01-29T03:27:11.880Z,6.48
2024-01-29T03:28:12.282Z,6.35
2024-01-29T03:29:12.621Z,6.26
2024-01-29T03:30:12.957Z,6.30
2024-01-29T03:31:13.323Z,6.44
2024-01-29T03:32:13.739Z,6.41
2024-01-29T03:33:14.178Z,6.42
2024-01-29T03:34:14.487Z,6.39
2024-01-29T03:35:14.750Z,6.36
2024-01-29T03:36:15.065Z,6.44
2024-01-29T03:37:15.443Z,6.38
2024-01-29T03:38:15.802Z,6.31
2024-01-29T03:39:16.116Z,6.33
2024-01-29T03:40:16.489Z,6.36
2024-01-29T03:41:16.870Z,6.24
2024-01-29T03:42:17.224Z,6.16
2024-01-29T03:43:17.570Z,6.05
2024-01-29T03:44:17.883Z,6.14
2024-01-29T03:45:18.252Z,6.05
2024-01-29T03:46:18.614Z,6.11
2024-01-29T03:47:18.991Z,6.07
2024-01-29T03:48:19.408Z,5.98
2024-01-29T03:49:19.732Z,6.02
2024-01-29T03:50:20.157Z,6.11
2024-01-29T03:51:20.400Z,6.17
2024-01-29T03:52:20.765Z,5.89
2024-01-29T03:53:21.131Z,5.89
2024-01-29T03:54:21.490Z,5.79
2024-01-29T03:55:21.856Z,5.71
2024-01-29T03:56:22.150Z,5.69
2024-01-29T03:57:22.500Z,5.66
2024-01-29T03:58:22.869Z,5.57
2024-01-29T03:59:23.179Z,5.51
2024-01-29T04:00:23.658Z,5.44
2024-01-29T04:01:23.982Z,5.44
2024-01-29T04:02:24.308Z,5.48
2024-01-29T04:03:24.691Z,5.41
2024-01-29T04:04:25.072Z,5.35
2024-01-29T04:05:25.443Z,5.43
2024-01-29T04:06:25.766Z,5.44
2024-01-29T04:07:26.087Z,5.53
2024-01-29T04:08:26.372Z,5.46
2024-01-29T04:09:26.763Z,5.29
2024-01-29T04:10:27.087Z,5.29
2024-01-29T04:11:27.502Z,5.29
2024-01-29T04:12:27.888Z,5.33
2024-01-29T04:13:28.182Z,5.32
2024-01-29T04:14:28.537Z,5.33
2024-01-29T04:15:28.949Z,5.38
2024-01-29T04:16:29.287Z,5.32
2024-01-29T04:17:29.692Z,5.29
2024-01-29T04:18:30.132Z,5.26
2024-01-29T04:19:30.395Z,5.08
2024-01-29T04:20:30.693Z,5.04
2024-01-29T04:21:31.046Z,5.08
2024-01-29T04:22:31.387Z,5.12
2024-01-29T04:23:31.710Z,5.11
2024-01-29T04:24:32.104Z,5.08
2024-01-29T04:25:32.423Z,5.05
2024-01-29T04:26:32.799Z,4.94
2024-01-29T04:27:33.173Z,5.10
2024-01-29T04:28:33.486Z,5.18
2024-01-29T04:29:33.830Z,5.20
2024-01-29T04:30:34.246Z,5.26
2024-01-29T04:31:34.531Z,5.35
2024-01-29T04:32:34.911Z,5.36
2024-01-29T04:33:36.345Z,5.26
2024-01-29T04:34:35.605Z,5.32
2024-01-29T04:35:35.943Z,5.47
2024-01-29T04:36:36.316Z,5.47
2024-01-29T04:37:36.674Z,5.50
2024-01-29T04:38:36.994Z,5.56
2024-01-29T04:39:37.385Z,5.62
2024-01-29T04:40:37.690Z,5.53
2024-01-29T04:41:38.053Z,5.57
2024-01-29T04:42:38.528Z,5.61
2024-01-29T04:43:38.784Z,5.53
2024-01-29T04:44:39.156Z,5.61
2024-01-29T04:45:39.536Z,5.56
2024-01-29T04:46:39.884Z,5.57
2024-01-29T04:47:40.310Z,5.48
2024-01-29T04:48:40.789Z,5.48
2024-01-29T04:49:40.970Z,5.53
2024-01-29T04:50:41.313Z,5.50
2024-01-29T04:51:41.720Z,5.46
2024-01-29T04:52:42.060Z,5.50
2024-01-29T04:53:42.372Z,5.50
2024-01-29T04:54:42.738Z,5.53
2024-01-29T04:55:43.056Z,5.62
2024-01-29T04:56:43.423Z,5.59
2024-01-29T04:57:43.823Z,5.54
2024-01-29T04:58:44.157Z,5.59
2024-01-29T04:59:44.485Z,5.57
2024-01-29T05:00:44.909Z,5.59
2024-01-29T05:01:45.361Z,5.62
2024-01-29T05:02:45.602Z,5.56
2024-01-29T05:03:47.916Z,5.54
2024-01-29T05:04:46.308Z,5.51
2024-01-29T05:05:46.622Z,5.41
2024-01-29T05:06:46.981Z,5.53
2024-01-29T05:07:47.262Z,5.53
2024-01-29T05:08:47.589Z,5.56
2024-01-29T05:09:47.969Z,5.56
2024-01-29T05:10:48.294Z,5.36
2024-01-29T05:11:48.668Z,5.29
2024-01-29T05:12:49.110Z,5.39
2024-01-29T05:13:49.359Z,5.30
2024-01-29T05:14:49.721Z,5.38
2024-01-29T05:15:50.130Z,5.17
2024-01-29T05:16:50.416Z,5.20
2024-01-29T05:17:50.856Z,5.28
2024-01-29T05:18:51.259Z,5.33
2024-01-29T05:19:51.554Z,5.28
2024-01-29T05:20:51.897Z,5.32
2024-01-29T05:21:52.296Z,5.32
2024-01-29T05:22:52.619Z,5.35
2024-01-29T05:23:52.935Z,5.36
2024-01-29T05:24:53.328Z,5.43
2024-01-29T05:25:53.623Z,5.39
2024-01-29T05:26:53.995Z,5.25
2024-01-29T05:27:54.422Z,5.29
2024-01-29T05:28:54.749Z,5.21
2024-01-29T05:29:55.068Z,5.12
2024-01-29T05:30:55.508Z,5.11
2024-01-29T05:31:55.829Z,5.07
2024-01-29T05:32:56.362Z,5.05
2024-01-29T05:33:56.581Z,5.08
2024-01-29T05:34:56.943Z,5.04
2024-01-29T05:35:57.264Z,5.04
2024-01-29T05:36:57.656Z,5.02
2024-01-29T05:37:57.966Z,5.07
2024-01-29T05:38:58.282Z,5.05
2024-01-29T05:39:58.688Z,4.99
2024-01-29T05:40:59.000Z,4.82
2024-01-29T05:41:59.364Z,4.94
2024-01-29T05:42:59.774Z,4.97
2024-01-29T05:44:00.106Z,4.93
2024-01-29T05:45:00.444Z,4.93
2024-01-29T05:46:00.864Z,4.86
2024-01-29T05:47:01.152Z,4.80
2024-01-29T05:48:01.583Z,4.78
2024-01-29T05:49:02.040Z,4.80
2024-01-29T05:50:02.422Z,4.82
2024-01-29T05:51:02.628Z,4.92
2024-01-29T05:52:02.964Z,4.86
2024-01-29T05:53:03.295Z,4.94
2024-01-29T05:54:03.604Z,4.87
2024-01-29T05:55:04.086Z,4.87
2024-01-29T05:56:04.294Z,4.93
2024-01-29T05:57:04.684Z,4.90
2024-01-29T05:58:05.065Z,4.86
2024-01-29T05:59:05.380Z,4.87
2024-01-29T06:00:05.748Z,4.86
2024-01-29T06:01:06.221Z,4.96
2024-01-29T06:02:06.610Z,4.89
2024-01-29T06:03:06.875Z,4.86
2024-01-29T06:04:07.214Z,4.87
2024-01-29T06:05:07.570Z,4.87
2024-01-29T06:06:08.076Z,4.78
2024-01-29T06:07:08.322Z,4.84
2024-01-29T06:08:08.618Z,4.93
2024-01-29T06:09:08.940Z,5.00
2024-01-29T06:10:09.369Z,5.08
2024-01-29T06:11:09.658Z,5.02
2024-01-29T06:12:10.045Z,5.00
2024-01-29T06:13:10.546Z,5.00
2024-01-29T06:14:10.704Z,5.10
2024-01-29T06:15:11.067Z,5.05
2024-01-29T06:16:11.484Z,5.12
2024-01-29T06:17:11.799Z,5.10
2024-01-29T06:18:12.173Z,5.17
2024-01-29T06:19:12.583Z,5.18
2024-01-29T06:20:17.570Z,5.25
2024-01-29T06:21:13.227Z,5.30
2024-01-29T06:22:13.605Z,5.15
2024-01-29T06:23:13.924Z,5.20
2024-01-29T06:24:14.279Z,5.20
2024-01-29T06:25:14.788Z,5.18
2024-01-29T06:26:14.990Z,5.21
2024-01-29T06:27:15.345Z,5.12
2024-01-29T06:28:15.725Z,5.18
2024-01-29T06:29:16.151Z,5.32
2024-01-29T06:30:16.380Z,5.38
2024-01-29T06:31:16.765Z,5.33
2024-01-29T06:32:17.118Z,5.30
2024-01-29T06:33:17.534Z,5.33
2024-01-29T06:34:17.721Z,5.36
2024-01-29T06:35:17.964Z,5.38
2024-01-29T06:36:18.240Z,5.30
2024-01-29T06:37:18.690Z,5.33
2024-01-29T06:38:19.046Z,5.38
2024-01-29T06:39:19.318Z,5.29
2024-01-29T06:40:19.613Z,5.33
2024-01-29T06:41:19.759Z,5.32
2024-01-29T06:42:19.949Z,5.39
2024-01-29T06:43:20.245Z,5.38
2024-01-29T06:44:20.504Z,5.46
2024-01-29T06:45:20.811Z,5.53
2024-01-29T06:46:20.975Z,5.59
2024-01-29T06:47:21.393Z,5.53
2024-01-29T06:48:21.410Z,5.50
2024-01-29T06:49:21.722Z,5.54
2024-01-29T06:50:22.013Z,5.57
2024-01-29T06:51:22.269Z,5.54
2024-01-29T06:52:22.630Z,5.54
2024-01-29T06:53:22.846Z,5.59
2024-01-29T06:54:23.126Z,5.48
2024-01-29T06:55:23.399Z,5.57
2024-01-29T06:56:23.681Z,5.54
2024-01-29T06:57:24.055Z,5.62
2024-01-29T06:58:24.084Z,5.61
2024-01-29T06:59:24.339Z,5.57
2024-01-29T07:00:24.643Z,5.72
2024-01-29T07:01:24.974Z,5.65
2024-01-29T07:02:25.015Z,5.71
2024-01-29T07:03:25.150Z,5.68
2024-01-29T07:04:25.305Z,5.71
2024-01-29T07:05:25.457Z,5.72
2024-01-29T07:06:25.845Z,5.75
2024-01-29T07:07:26.271Z,5.76
2024-01-29T07:08:26.201Z,5.76
2024-01-29T07:09:29.124Z,5.82
2024-01-29T07:10:26.653Z,5.93
2024-01-29T07:11:26.732Z,5.98
2024-01-29T07:12:27.093Z,5.91
2024-01-29T07:13:27.207Z,5.87
2024-01-29T07:14:27.432Z,5.79
2024-01-29T07:15:27.656Z,5.71
2024-01-29T07:16:27.862Z,5.68
2024-01-29T07:17:28.274Z,5.71
2024-01-29T07:18:28.454Z,5.83
2024-01-29T07:19:28.994Z,5.75
2024-01-29T07:20:30.394Z,5.73
2024-01-29T07:21:29.261Z,5.80
2024-01-29T07:22:29.423Z,5.80
2024-01-29T07:23:29.583Z,5.80
2024-01-29T07:24:29.797Z,5.84
2024-01-29T07:25:29.966Z,5.80
2024-01-29T07:26:30.256Z,5.87
2024-01-29T07:27:30.606Z,6.07
2024-01-29T07:28:30.731Z,5.90
2024-01-29T07:29:31.145Z,6.01
2024-01-29T07:30:31.232Z,6.09
2024-01-29T07:31:31.557Z,5.97
2024-01-29T07:32:31.848Z,5.98
2024-01-29T07:33:32.134Z,6.07
2024-01-29T07:34:32.370Z,6.16
2024-01-29T07:35:32.443Z,6.24
2024-01-29T07:36:32.693Z,6.30
2024-01-29T07:37:32.968Z,6.17
2024-01-29T07:38:33.114Z,6.14
2024-01-29T07:39:33.536Z,6.17
2024-01-29T07:40:33.598Z,6.14
2024-01-29T07:41:33.905Z,6.36
2024-01-29T07:42:34.122Z,6.42
2024-01-29T07:43:34.380Z,6.42
2024-01-29T07:44:34.669Z,6.35
2024-01-29T07:45:34.898Z,6.39
2024-01-29T07:46:35.158Z,6.33
2024-01-29T07:47:35.484Z,6.31
2024-01-29T07:48:35.821Z,6.45
2024-01-29T07:49:36.116Z,6.54
2024-01-29T07:50:36.233Z,6.59
2024-01-29T07:51:36.547Z,6.67
2024-01-29T07:52:36.702Z,6.69
2024-01-29T07:53:36.993Z,6.62
2024-01-29T07:54:37.307Z,6.41
2024-01-29T07:55:37.471Z,6.51
2024-01-29T07:56:37.741Z,6.52
2024-01-29T07:57:38.074Z,6.67
2024-01-29T07:58:38.232Z,6.45
2024-01-29T07:59:38.391Z,6.51
2024-01-29T08:00:38.702Z,6.63
2024-01-29T08:01:38.841Z,6.67
2024-01-29T08:02:38.999Z,6.81
2024-01-29T08:03:39.340Z,6.81
2024-01-29T08:04:39.640Z,6.77
2024-01-29T08:05:39.669Z,6.69
2024-01-29T08:06:39.862Z,6.74
2024-01-29T08:07:40.038Z,6.81
2024-01-29T08:08:40.286Z,6.85
2024-01-29T08:09:40.512Z,6.99
2024-01-29T08:10:40.753Z,6.92
2024-01-29T08:11:40.911Z,6.89
2024-01-29T08:12:41.278Z,6.82
2024-01-29T08:13:41.520Z,6.99
2024-01-29T08:14:41.699Z,6.95
2024-01-29T08:15:41.907Z,6.93
2024-01-29T08:16:42.038Z,7.05
2024-01-29T08:17:42.525Z,6.88
2024-01-29T08:18:42.852Z,6.88
2024-01-29T08:19:43.050Z,6.74
2024-01-29T08:20:43.192Z,6.84
2024-01-29T08:21:43.152Z,6.70
2024-01-29T08:22:43.477Z,6.66
2024-01-29T08:23:43.617Z,6.74
2024-01-29T08:24:44.567Z,6.64
2024-01-29T08:25:43.971Z,6.62
2024-01-29T08:26:44.134Z,6.63
2024-01-29T08:27:44.364Z,6.64
2024-01-29T08:28:44.602Z,6.77
2024-01-29T08:29:44.784Z,6.82
2024-01-29T08:30:45.109Z,6.79
2024-01-29T08:31:46.218Z,6.82
2024-01-29T08:32:45.360Z,6.84
2024-01-29T08:33:45.535Z,6.88
2024-01-29T08:34:45.786Z,7.07
2024-01-29T08:35:45.810Z,7.13
2024-01-29T08:36:46.088Z,7.00
2024-01-29T08:37:46.215Z,7.02
2024-01-29T08:38:46.989Z,6.92
2024-01-29T08:39:46.628Z,6.99
2024-01-29T08:40:46.756Z,7.02
2024-01-29T08:41:46.948Z,7.13
2024-01-29T08:42:48.165Z,7.24
2024-01-29T08:43:47.348Z,7.36
2024-01-29T08:44:47.505Z,7.31
2024-01-29T08:45:47.776Z,7.15
2024-01-29T08:46:47.881Z,7.20
2024-01-29T08:47:48.114Z,7.20
2024-01-29T08:48:48.259Z,7.29
2024-01-29T08:49:48.425Z,7.43
2024-01-29T08:50:48.610Z,7.29
2024-01-29T08:51:48.830Z,7.21
2024-01-29T08:52:49.060Z,7.31
2024-01-29T08:53:49.279Z,7.32
2024-01-29T08:54:49.512Z,7.29
2024-01-29T08:55:50.089Z,7.36
2024-01-29T08:56:49.832Z,7.32
2024-01-29T08:57:50.078Z,7.45
2024-01-29T08:58:50.189Z,7.58
2024-01-29T08:59:50.386Z,7.63
2024-01-29T09:00:50.606Z,7.73
2024-01-29T09:01:50.790Z,7.66
2024-01-29T09:02:50.974Z,7.57
2024-01-29T09:03:51.163Z,7.70
2024-01-29T09:04:51.363Z,7.79
2024-01-29T09:05:51.443Z,7.79
2024-01-29T09:06:51.704Z,7.73
2024-01-29T09:07:51.843Z,7.82
2024-01-29T09:08:52.029Z,7.80
2024-01-29T09:09:52.247Z,7.85
2024-01-29T09:10:52.344Z,7.98
2024-01-29T09:11:52.557Z,8.09
2024-01-29T09:12:52.762Z,8.09
2024-01-29T09:13:52.905Z,8.16
2024-01-29T09:14:53.091Z,8.00
2024-01-29T09:15:53.375Z,7.95
2024-01-29T09:16:53.536Z,8.08
2024-01-29T09:17:53.696Z,8.19
2024-01-29T09:18:53.871Z,8.24
2024-01-29T09:19:53.998Z,8.18
2024-01-29T09:20:54.183Z,8.23
2024-01-29T09:21:54.440Z,8.36
2024-01-29T09:22:54.573Z,8.41
2024-01-29T09:23:54.725Z,8.44
2024-01-29T09:24:54.992Z,8.51
2024-01-29T09:25:55.216Z,8.70
2024-01-29T09:26:55.401Z,8.74
2024-01-29T09:27:55.755Z,8.64
2024-01-29T09:28:55.773Z,8.61
2024-01-29T09:29:55.948Z,8.61
2024-01-29T09:30:56.179Z,8.82
2024-01-29T09:31:56.341Z,8.85
2024-01-29T09:33:03.469Z,8.76
2024-01-29T09:33:56.817Z,8.74
2024-01-29T09:34:56.905Z,8.74
2024-01-29T09:35:57.026Z,8.71
2024-01-29T09:36:57.266Z,8.60
2024-01-29T09:37:57.419Z,8.58
2024-01-29T09:38:57.591Z,8.71
2024-01-29T09:39:57.865Z,8.82
2024-01-29T09:40:58.033Z,8.89
2024-01-29T09:41:58.155Z,8.95
2024-01-29T09:42:58.360Z,8.81
2024-01-29T09:43:58.500Z,8.78
2024-01-29T09:44:58.683Z,8.78
2024-01-29T09:45:58.930Z,8.85
2024-01-29T09:46:59.058Z,8.74
2024-01-29T09:47:59.312Z,8.69
2024-01-29T09:48:59.646Z,8.73
2024-01-29T09:49:59.707Z,8.78
2024-01-29T09:50:59.768Z,8.70
2024-01-29T09:52:00.011Z,8.67
2024-01-29T09:53:00.180Z,8.66
2024-01-29T09:54:00.327Z,8.48
2024-01-29T09:55:00.541Z,8.60
2024-01-29T09:56:00.685Z,8.84
2024-01-29T09:57:00.875Z,8.73
2024-01-29T09:58:01.099Z,8.74
2024-01-29T09:59:01.221Z,8.92
2024-01-29T10:00:01.440Z,8.85
2024-01-29T10:01:01.682Z,8.70
2024-01-29T10:02:02.097Z,8.82
2024-01-29T10:03:02.089Z,8.78
2024-01-29T10:04:02.188Z,8.67
2024-01-29T10:05:02.432Z,8.91
2024-01-29T10:06:02.481Z,9.02
2024-01-29T10:07:02.772Z,9.11
2024-01-29T10:08:02.970Z,9.22
2024-01-29T10:09:03.039Z,8.97
2024-01-29T10:10:03.330Z,9.11
2024-01-29T10:11:03.424Z,8.99
2024-01-29T10:12:03.646Z,8.95
2024-01-29T10:13:03.900Z,8.95
2024-01-29T10:14:03.976Z,8.95
2024-01-29T10:15:04.174Z,8.97
2024-01-29T10:16:04.406Z,8.92
2024-01-29T10:17:04.569Z,9.02
2024-01-29T10:18:04.725Z,9.23
2024-01-29T10:19:04.989Z,9.18
2024-01-29T10:20:05.202Z,9.39
2024-01-29T10:21:05.278Z,9.54
2024-01-29T10:22:05.547Z,9.44
2024-01-29T10:23:05.615Z,9.54
2024-01-29T10:24:05.901Z,9.50
2024-01-29T10:25:06.230Z,9.68
2024-01-29T10:26:06.271Z,9.74
2024-01-29T10:27:06.472Z,9.79
2024-01-29T10:28:06.749Z,9.61
2024-01-29T10:29:06.826Z,9.68
2024-01-29T10:30:06.975Z,9.72
2024-01-29T10:31:07.316Z,9.65
2024-01-29T10:32:07.477Z,9.56
2024-01-29T10:33:07.722Z,9.59
2024-01-29T10:34:07.918Z,9.44
2024-01-29T10:35:08.224Z,9.58
2024-01-29T10:36:08.189Z,9.66
2024-01-29T10:37:08.440Z,9.40
2024-01-29T10:38:08.576Z,9.54
2024-01-29T10:39:08.713Z,9.68
2024-01-29T10:40:08.983Z,9.77
2024-01-29T10:41:09.081Z,9.72
2024-01-29T10:42:09.311Z,9.59
2024-01-29T10:43:09.472Z,9.61
2024-01-29T10:44:09.659Z,9.84
2024-01-29T10:45:09.817Z,10.19
2024-01-29T10:46:10.282Z,10.44
2024-01-29T10:47:10.238Z,10.07
2024-01-29T10:48:10.470Z,9.86
2024-01-29T10:49:10.674Z,10.20
2024-01-29T10:50:10.772Z,10.05
2024-01-29T10:51:10.930Z,10.46
2024-01-29T10:52:11.218Z,10.57
2024-01-29T10:53:11.295Z,10.34
2024-01-29T10:54:11.489Z,10.09
2024-01-29T10:55:11.745Z,10.10
2024-01-29T10:56:11.856Z,10.30
2024-01-29T10:57:12.055Z,10.44
2024-01-29T10:58:12.277Z,10.44
2024-01-29T10:59:12.433Z,10.53
2024-01-29T11:00:12.640Z,10.56
2024-01-29T11:01:12.941Z,10.89
2024-01-29T11:02:13.076Z,11.00
2024-01-29T11:03:13.248Z,11.02
2024-01-29T11:04:13.620Z,11.12
2024-01-29T11:05:13.753Z,10.86
2024-01-29T11:06:13.886Z,10.57
2024-01-29T11:07:14.149Z,10.71
2024-01-29T11:08:14.238Z,10.97
2024-01-29T11:09:14.448Z,11.04
2024-01-29T11:10:14.665Z,10.67
2024-01-29T11:11:14.816Z,10.74
2024-01-29T11:12:16.149Z,11.12
2024-01-29T11:13:15.222Z,11.05
2024-01-29T11:14:15.382Z,11.36
2024-01-29T11:15:15.590Z,11.59
2024-01-29T11:16:15.837Z,11.73
2024-01-29T11:17:16.005Z,11.57
2024-01-29T11:18:16.295Z,11.62
2024-01-29T11:19:16.485Z,11.83
2024-01-29T11:20:16.621Z,11.83
2024-01-29T11:21:17.609Z,11.12
2024-01-29T11:22:16.980Z,10.68
2024-01-29T11:23:22.323Z,10.94
2024-01-29T11:24:17.386Z,11.37
2024-01-29T11:25:17.581Z,11.59
2024-01-29T11:26:17.841Z,11.94
2024-01-29T11:27:18.007Z,12.02
2024-01-29T11:28:18.415Z,12.24
2024-01-29T11:29:18.407Z,11.63
2024-01-29T11:30:18.646Z,11.59
2024-01-29T11:31:18.955Z,11.27
2024-01-29T11:32:18.992Z,10.90
2024-01-29T11:33:19.280Z,11.10
2024-01-29T11:34:19.429Z,11.43
2024-01-29T11:35:25.666Z,11.83
2024-01-29T11:36:19.765Z,11.80
2024-01-29T11:37:19.982Z,11.32
2024-01-29T11:38:20.169Z,11.45
2024-01-29T11:39:20.340Z,11.66
2024-01-29T11:40:20.545Z,11.23
2024-01-29T11:41:20.723Z,11.48
2024-01-29T11:42:20.934Z,11.72
2024-01-29T11:43:21.227Z,11.94
2024-01-29T11:44:21.466Z,12.00
2024-01-29T11:45:21.521Z,11.48
2024-01-29T11:46:21.801Z,11.07
2024-01-29T11:47:21.900Z,11.43
2024-01-29T11:48:22.698Z,11.48
2024-01-29T11:49:22.445Z,11.75
2024-01-29T11:50:22.502Z,11.55
2024-01-29T11:51:22.682Z,11.44
2024-01-29T11:52:22.904Z,11.72
2024-01-29T11:53:23.038Z,11.81
2024-01-29T11:54:23.227Z,11.73
2024-01-29T11:55:23.481Z,11.68
2024-01-29T11:56:23.608Z,11.83
2024-01-29T11:57:23.814Z,12.22
2024-01-29T11:58:24.261Z,12.00
2024-01-29T11:59:24.190Z,11.83
2024-01-29T12:00:24.380Z,12.03
2024-01-29T12:01:24.682Z,12.20
2024-01-29T12:02:24.756Z,12.13
2024-01-29T12:03:25.122Z,12.31
2024-01-29T12:04:25.209Z,12.07
2024-01-29T12:05:25.357Z,12.03
2024-01-29T12:06:25.514Z,12.18
2024-01-29T12:07:25.805Z,12.04
2024-01-29T12:08:25.922Z,12.12
2024-01-29T12:09:26.087Z,12.36
2024-01-29T12:10:26.269Z,12.15
2024-01-29T12:11:26.442Z,12.15
2024-01-29T12:12:26.678Z,12.31
2024-01-29T12:13:26.833Z,12.32
2024-01-29T12:14:27.039Z,12.12
2024-01-29T12:15:27.311Z,12.04
2024-01-29T12:16:27.480Z,12.13
2024-01-29T12:17:27.622Z,12.46
2024-01-29T12:18:27.898Z,12.65
2024-01-29T12:19:27.991Z,12.49
2024-01-29T12:20:28.188Z,12.40
2024-01-29T12:21:28.430Z,12.28
2024-01-29T12:22:28.558Z,12.46
2024-01-29T12:23:28.717Z,12.28
2024-01-29T12:24:28.961Z,12.22
2024-01-29T12:25:29.104Z,12.57
2024-01-29T12:26:29.915Z,12.75
2024-01-29T12:27:29.516Z,13.25
2024-01-29T12:28:29.879Z,13.27
2024-01-29T12:29:29.858Z,13.30
2024-01-29T12:30:30.064Z,12.90
2024-01-29T12:31:30.310Z,12.95
2024-01-29T12:32:30.419Z,12.85
2024-01-29T12:33:31.894Z,12.95
2024-01-29T12:34:30.913Z,13.35
2024-01-29T12:35:31.012Z,13.46
2024-01-29T12:36:31.237Z,13.09
2024-01-29T12:37:31.379Z,13.15
2024-01-29T12:38:32.122Z,12.70
2024-01-29T12:39:31.754Z,12.65
2024-01-29T12:40:31.902Z,12.73
2024-01-29T12:41:32.066Z,12.87
2024-01-29T12:42:32.387Z,13.23
2024-01-29T12:43:32.428Z,13.41
2024-01-29T12:44:32.644Z,13.12
2024-01-29T12:45:32.840Z,13.09
2024-01-29T12:46:33.028Z,12.42
2024-01-29T12:47:33.279Z,12.49
2024-01-29T12:48:33.628Z,12.70
2024-01-29T12:49:33.769Z,12.93
2024-01-29T12:50:33.917Z,13.00
2024-01-29T12:51:34.092Z,12.73
2024-01-29T12:52:34.167Z,12.90
2024-01-29T12:53:34.309Z,12.76
2024-01-29T12:54:34.556Z,12.72
2024-01-29T12:55:34.704Z,13.00
2024-01-29T12:56:34.869Z,12.64
2024-01-29T12:57:35.141Z,12.60
2024-01-29T12:58:35.243Z,12.68
2024-01-29T12:59:35.415Z,12.47
2024-01-29T13:00:35.619Z,12.93
2024-01-29T13:01:35.963Z,13.01
2024-01-29T13:02:36.635Z,13.09
2024-01-29T13:03:36.298Z,13.23
2024-01-29T13:04:36.450Z,12.91
2024-01-29T13:05:36.594Z,12.67
2024-01-29T13:06:36.794Z,12.53
2024-01-29T13:07:36.917Z,12.75
2024-01-29T13:08:37.093Z,13.03
2024-01-29T13:09:37.311Z,13.05
2024-01-29T13:10:37.476Z,12.80
2024-01-29T13:11:37.662Z,13.08
2024-01-29T13:12:37.898Z,12.97
2024-01-29T13:13:38.203Z,12.95
2024-01-29T13:14:38.203Z,12.86
2024-01-29T13:15:38.406Z,12.76
2024-01-29T13:16:38.561Z,12.94
2024-01-29T13:17:38.788Z,13.03